createdAt,value
2018-04-28T00:02:12.441Z,6.93
2018-04-28T00:04:41.086Z,6.30
2018-04-28T00:07:08.953Z,5.93
2018-04-28T00:09:37.427Z,7.17
2018-04-28T00:12:05.294Z,7.53
2018-04-28T00:14:33.058Z,7.17
2018-04-28T00:17:04.814Z,6.83
2018-04-28T00:19:33.501Z,7.37
2018-04-28T00:22:06.018Z,7.20
2018-04-28T00:24:43.568Z,8.97
2018-04-28T00:27:12.561Z,8.83
2018-04-28T00:29:44.314Z,8.07
2018-04-28T00:32:12.180Z,9.53
2018-04-28T00:34:44.760Z,8.90
2018-04-28T00:37:14.362Z,8.87
2018-04-28T00:39:45.914Z,10.17
2018-04-28T00:42:13.678Z,8.97
2018-04-28T00:44:42.261Z,9.20
2018-04-28T00:47:19.956Z,9.77
2018-04-28T00:50:02.465Z,9.40
2018-04-28T00:52:30.268Z,10.17
2018-04-28T00:55:00.449Z,10.90
2018-04-28T00:57:32.410Z,19.33
2018-04-28T01:00:04.176Z,12.73
2018-04-28T01:02:32.033Z,16.40
2018-04-28T01:04:59.899Z,11.00
2018-04-28T01:07:27.764Z,11.47
2018-04-28T01:09:59.111Z,14.70
2018-04-28T01:12:26.977Z,11.83
2018-04-28T01:15:13.581Z,12.07
2018-04-28T01:17:58.140Z,14.07
2018-04-28T01:20:30.509Z,11.73
2018-04-28T01:23:04.070Z,15.20
2018-04-28T01:25:41.501Z,21.77
2018-04-28T01:28:25.032Z,16.97
2018-04-28T01:30:52.902Z,12.03
2018-04-28T01:33:48.514Z,11.93
2018-04-28T01:36:37.268Z,14.60
2018-04-28T01:39:08.737Z,21.40
2018-04-28T01:41:51.432Z,12.87
2018-04-28T01:44:34.839Z,13.50
2018-04-28T01:47:08.563Z,15.47
2018-04-28T01:49:45.237Z,13.23
2018-04-28T01:52:13.922Z,14.57
2018-04-28T01:54:55.304Z,12.90
2018-04-28T01:57:23.169Z,13.00
2018-04-28T01:59:54.721Z,13.00
2018-04-28T02:02:40.199Z,16.90
2018-04-28T02:05:12.776Z,13.50
2018-04-28T02:07:41.489Z,13.83
2018-04-28T02:10:09.326Z,16.20
2018-04-28T02:12:48.046Z,14.20
2018-04-28T02:15:24.615Z,12.57
2018-04-28T02:18:00.060Z,13.73
2018-04-28T02:20:30.528Z,12.83
2018-04-28T02:23:05.006Z,12.93
2018-04-28T02:25:51.508Z,12.10
2018-04-28T02:28:25.211Z,13.20
2018-04-28T02:31:01.632Z,13.70
2018-04-28T02:33:30.363Z,12.40
2018-04-28T02:36:00.689Z,12.80
2018-04-28T02:38:34.429Z,13.53
2018-04-28T02:41:13.006Z,13.60
2018-04-28T02:43:58.485Z,13.80
2018-04-28T02:46:29.162Z,13.13
2018-04-28T02:49:17.255Z,12.53
2018-04-28T02:51:51.746Z,12.13
2018-04-28T02:54:24.353Z,14.23
2018-04-28T02:56:57.575Z,12.13
2018-04-28T02:59:37.189Z,13.07
2018-04-28T03:02:26.559Z,12.13
2018-04-28T03:05:00.103Z,12.57
2018-04-28T03:07:36.831Z,12.70
2018-04-28T03:10:24.158Z,12.80
2018-04-28T03:12:52.019Z,12.73
2018-04-28T03:15:19.886Z,12.40
2018-04-28T03:17:58.202Z,12.67
2018-04-28T03:20:30.502Z,12.67
2018-04-28T03:23:01.293Z,12.70
2018-04-28T03:25:29.159Z,12.13
2018-04-28T03:28:01.838Z,12.43
2018-04-28T03:30:47.316Z,11.17
2018-04-28T03:33:22.861Z,11.83
2018-04-28T03:35:51.381Z,13.30
2018-04-28T03:38:50.644Z,13.13
2018-04-28T03:41:31.208Z,13.43
2018-04-28T03:44:06.898Z,12.67
2018-04-28T03:46:36.256Z,12.30
2018-04-28T03:49:19.995Z,12.60
2018-04-28T03:51:50.829Z,11.93
2018-04-28T03:54:22.381Z,11.77
2018-04-28T04:00:01.121Z,12.37
2018-04-28T04:02:40.762Z,13.27
2018-04-28T04:05:11.086Z,14.50
2018-04-28T04:07:53.799Z,13.57
2018-04-28T04:10:26.623Z,14.97
2018-04-28T04:13:07.188Z,16.80
2018-04-28T04:15:54.260Z,14.13
2018-04-28T04:18:26.631Z,14.87
2018-04-28T04:21:23.273Z,16.37
2018-04-28T04:24:02.865Z,15.60
2018-04-28T04:26:52.077Z,16.07
2018-04-28T04:29:25.677Z,14.40
2018-04-28T04:31:58.488Z,12.63
2018-04-28T04:37:54.707Z,17.53
2018-04-28T04:40:41.210Z,13.43
2018-04-28T04:43:31.603Z,12.47
2018-04-28T04:46:00.288Z,16.63
2018-04-28T04:52:03.808Z,11.67
2018-04-28T04:54:48.364Z,12.27
2018-04-28T04:57:27.860Z,12.23
2018-04-28T05:03:19.954Z,11.73
2018-04-28T05:06:11.373Z,12.20
2018-04-28T05:08:45.894Z,10.90
2018-04-28T05:11:33.633Z,11.90
2018-04-28T05:14:24.125Z,11.30
2018-04-28T05:16:58.745Z,9.83
2018-04-28T05:19:47.400Z,10.20
2018-04-28T05:22:22.228Z,9.03
2018-04-28T05:25:10.677Z,8.60
2018-04-28T05:27:47.354Z,9.60
2018-04-28T05:30:26.993Z,8.77
2018-04-28T05:33:10.523Z,9.03
2018-04-28T05:35:57.165Z,7.97
2018-04-28T05:38:51.207Z,8.20
2018-04-28T05:41:25.626Z,7.73
2018-04-28T05:44:17.043Z,8.90
2018-04-28T05:50:26.093Z,9.37
2018-04-28T05:53:05.840Z,8.50
2018-04-28T05:55:49.681Z,8.30
2018-04-28T05:58:35.982Z,9.40
2018-04-28T06:01:25.762Z,9.83
2018-04-28T06:04:04.167Z,9.53
2018-04-28T06:07:05.416Z,9.63
2018-04-28T06:09:54.072Z,8.73
2018-04-28T06:12:33.710Z,10.20
2018-04-28T06:15:12.225Z,9.33
2018-04-28T06:17:51.945Z,9.40
2018-04-28T06:20:31.824Z,9.43
2018-04-28T06:22:59.687Z,9.47
2018-04-28T06:25:27.549Z,8.60
2018-04-28T06:27:55.412Z,7.60
2018-04-28T06:30:23.169Z,8.00
2018-04-28T06:32:51.043Z,7.73
2018-04-28T06:35:18.907Z,7.50
2018-04-28T06:37:46.771Z,8.00
2018-04-28T06:40:14.637Z,7.93
2018-04-28T06:42:42.503Z,7.83
2018-04-28T06:45:10.249Z,8.23
2018-04-28T06:47:38.133Z,7.90
2018-04-28T06:50:05.866Z,8.20
2018-04-28T06:52:33.658Z,8.10
2018-04-28T06:55:01.524Z,8.07
2018-04-28T06:57:29.395Z,7.53
2018-04-28T06:59:57.266Z,7.80
2018-04-28T07:02:25.056Z,6.70
2018-04-28T07:04:52.987Z,6.57
2018-04-28T07:07:20.728Z,6.50
2018-04-28T07:09:48.401Z,7.00
2018-04-28T07:12:16.276Z,6.00
2018-04-28T07:14:44.040Z,6.47
2018-04-28T07:17:11.905Z,5.77
2018-04-28T07:19:39.773Z,6.10
2018-04-28T07:22:07.575Z,5.57
2018-04-28T07:24:36.061Z,5.50
2018-04-28T07:27:04.537Z,5.43
2018-04-28T07:29:33.178Z,5.03
2018-04-28T07:32:00.942Z,3.60
2018-04-28T07:34:28.807Z,3.97
2018-04-28T07:36:56.609Z,4.83
2018-04-28T07:39:25.097Z,3.30
2018-04-28T07:41:53.590Z,2.97
2018-04-28T07:44:21.499Z,3.53
2018-04-28T07:46:49.364Z,3.30
2018-04-28T07:49:17.230Z,2.87
2018-04-28T07:51:44.994Z,2.53
2018-04-28T07:54:12.860Z,2.80
2018-04-28T07:56:40.546Z,2.70
2018-04-28T07:59:08.385Z,2.30
2018-04-28T08:01:36.250Z,2.60
2018-04-28T08:04:04.120Z,2.73
2018-04-28T08:06:31.861Z,2.30
2018-04-28T08:08:59.746Z,2.67
2018-04-28T08:11:27.611Z,3.03
2018-04-28T08:13:55.477Z,2.87
2018-04-28T08:16:23.241Z,3.27
2018-04-28T08:18:51.105Z,2.63
2018-04-28T08:21:18.869Z,2.63
2018-04-28T08:23:46.734Z,3.90
2018-04-28T08:26:14.466Z,4.43
2018-04-28T08:28:42.363Z,3.30
2018-04-28T08:31:10.228Z,2.50
2018-04-28T08:33:38.095Z,2.60
2018-04-28T08:36:05.960Z,2.23
2018-04-28T08:38:33.825Z,2.00
2018-04-28T08:41:01.693Z,2.07
2018-04-28T08:43:29.441Z,2.20
2018-04-28T08:45:57.217Z,2.47
2018-04-28T08:48:24.953Z,2.40
2018-04-28T08:50:52.846Z,1.90
2018-04-28T08:53:20.712Z,2.90
2018-04-28T08:55:48.577Z,2.87
2018-04-28T08:58:16.317Z,2.30
2018-04-28T09:01:04.641Z,2.60
2018-04-28T09:03:32.557Z,2.40
2018-04-28T09:06:00.425Z,1.67
2018-04-28T09:08:28.121Z,2.07
2018-04-28T09:10:56.597Z,2.10
2018-04-28T09:13:25.067Z,2.00
2018-04-28T09:15:52.905Z,2.07
2018-04-28T09:18:20.771Z,1.83
2018-04-28T09:20:48.538Z,1.70
2018-04-28T09:23:16.295Z,2.20
2018-04-28T09:25:44.161Z,2.50
2018-04-28T09:28:11.926Z,2.13
2018-04-28T09:30:39.790Z,1.90
2018-04-28T09:33:07.670Z,1.73
2018-04-28T09:35:36.342Z,3.33
2018-04-28T09:38:04.108Z,2.53
2018-04-28T09:40:31.970Z,2.00
2018-04-28T09:42:59.838Z,2.20
2018-04-28T09:45:27.536Z,1.63
2018-04-28T09:47:56.180Z,1.63
2018-04-28T09:50:23.868Z,2.60
2018-04-28T09:52:51.541Z,2.50
2018-04-28T09:55:20.186Z,2.90
2018-04-28T09:57:59.832Z,2.57
2018-04-28T10:00:46.331Z,2.30
2018-04-28T10:03:31.782Z,2.50
2018-04-28T10:05:59.671Z,2.50
2018-04-28T10:08:27.331Z,2.37
2018-04-28T10:10:55.099Z,3.00
2018-04-28T10:13:22.804Z,2.13
2018-04-28T10:15:51.343Z,2.40
2018-04-28T10:18:19.208Z,2.97
2018-04-28T10:20:47.156Z,4.60
2018-04-28T10:23:15.657Z,2.80
2018-04-28T10:25:43.419Z,2.97
2018-04-28T10:28:11.284Z,3.20
2018-04-28T10:30:38.985Z,2.90
2018-04-28T10:33:07.429Z,2.73
2018-04-28T10:35:35.187Z,2.07
2018-04-28T10:38:02.952Z,2.97
2018-04-28T10:40:30.657Z,3.50
2018-04-28T10:42:59.152Z,2.37
2018-04-28T10:45:26.825Z,2.23
2018-04-28T10:47:54.531Z,2.30
2018-04-28T10:50:22.253Z,2.60
2018-04-28T10:52:49.950Z,2.80
2018-04-28T10:55:17.621Z,3.40
2018-04-28T10:57:45.327Z,2.80
2018-04-28T11:00:13.033Z,2.37
2018-04-28T11:02:40.714Z,2.27
2018-04-28T11:05:08.458Z,2.33
2018-04-28T11:07:36.161Z,2.23
2018-04-28T11:10:04.694Z,2.80
2018-04-28T11:12:32.392Z,2.60
2018-04-28T11:15:00.834Z,2.40
2018-04-28T11:17:28.538Z,2.23
2018-04-28T11:19:57.024Z,2.43
2018-04-28T11:22:24.709Z,2.80
2018-04-28T11:24:52.502Z,2.67
2018-04-28T11:27:20.366Z,2.33
2018-04-28T11:29:48.066Z,2.70
2018-04-28T11:32:16.505Z,2.03
2018-04-28T11:34:44.201Z,2.27
2018-04-28T11:37:12.355Z,2.33
2018-04-28T11:39:40.208Z,2.50
2018-04-28T11:42:07.969Z,2.57
2018-04-28T11:44:35.645Z,2.10
2018-04-28T11:47:03.328Z,2.50
2018-04-28T11:49:31.805Z,2.60
2018-04-28T11:52:00.293Z,2.30
2018-04-28T11:54:28.838Z,2.63
2018-04-28T11:56:56.705Z,2.53
2018-04-28T11:59:24.570Z,2.67
2018-04-28T12:01:52.328Z,3.37
2018-04-28T12:04:20.194Z,3.00
2018-04-28T12:06:48.060Z,3.57
2018-04-28T12:09:15.823Z,3.77
2018-04-28T12:11:43.689Z,3.50
2018-04-28T12:14:11.451Z,3.10
2018-04-28T12:16:39.215Z,3.50
2018-04-28T12:19:07.080Z,3.30
2018-04-28T12:21:34.946Z,3.60
2018-04-28T12:24:02.812Z,3.17
2018-04-28T12:26:30.676Z,3.13
2018-04-28T12:28:58.439Z,3.77
2018-04-28T12:31:26.305Z,3.13
2018-04-28T12:33:54.170Z,2.80
2018-04-28T12:36:22.040Z,3.20
2018-04-28T12:38:49.799Z,3.90
2018-04-28T12:41:17.666Z,5.00
2018-04-28T12:43:45.531Z,4.60
2018-04-28T12:46:13.982Z,5.50
2018-04-28T12:48:41.979Z,4.67
2018-04-28T12:51:09.742Z,4.33
2018-04-28T12:53:37.511Z,3.93
2018-04-28T12:56:05.371Z,4.83
2018-04-28T12:58:33.136Z,4.50
2018-04-28T13:01:01.000Z,5.03
2018-04-28T13:03:28.865Z,4.77
2018-04-28T13:05:56.733Z,5.00
2018-04-28T13:08:24.494Z,5.17
2018-04-28T13:10:52.359Z,5.10
2018-04-28T13:13:20.061Z,5.40
2018-04-28T13:15:48.501Z,5.70
2018-04-28T13:18:16.367Z,4.40
2018-04-28T13:20:44.184Z,4.57
2018-04-28T13:23:12.814Z,5.00
2018-04-28T13:25:40.680Z,4.40
2018-04-28T13:28:08.447Z,4.17
2018-04-28T13:30:36.309Z,4.47
2018-04-28T13:33:04.176Z,4.10
2018-04-28T13:35:32.041Z,4.80
2018-04-28T13:37:59.804Z,6.03
2018-04-28T13:40:28.490Z,4.50
2018-04-28T13:42:56.161Z,5.47
2018-04-28T13:45:23.912Z,4.30
2018-04-28T13:47:51.780Z,4.30
2018-04-28T13:50:19.541Z,4.70
2018-04-28T13:52:47.407Z,4.30
2018-04-28T13:55:15.272Z,4.00
2018-04-28T13:57:42.945Z,4.47
2018-04-28T14:00:10.799Z,4.73
2018-04-28T14:02:38.666Z,4.23
2018-04-28T14:05:06.532Z,4.50
2018-04-28T14:07:34.293Z,4.17
2018-04-28T14:10:02.163Z,4.77
2018-04-28T14:12:29.922Z,4.90
2018-04-28T14:14:57.685Z,4.60
2018-04-28T14:17:25.550Z,5.20
2018-04-28T14:19:53.314Z,4.67
2018-04-28T14:22:21.168Z,4.90
2018-04-28T14:24:49.045Z,3.87
2018-04-28T14:27:16.910Z,5.10
2018-04-28T14:29:44.674Z,4.10
2018-04-28T14:32:12.539Z,4.60
2018-04-28T14:34:40.405Z,4.40
2018-04-28T14:37:08.168Z,3.53
2018-04-28T14:39:36.082Z,3.23
2018-04-28T14:42:04.616Z,3.67
2018-04-28T14:44:32.380Z,3.70
2018-04-28T14:47:00.962Z,3.40
2018-04-28T14:49:28.633Z,3.37
2018-04-28T14:51:56.329Z,3.00
2018-04-28T14:54:24.813Z,4.87
2018-04-28T14:56:53.454Z,4.23
2018-04-28T14:59:21.211Z,3.40
2018-04-28T15:01:49.077Z,3.30
2018-04-28T15:04:17.152Z,4.40
2018-04-28T15:06:44.865Z,3.70
2018-04-28T15:09:12.674Z,3.60
2018-04-28T15:11:40.438Z,3.47
2018-04-28T15:14:08.303Z,3.43
2018-04-28T15:16:36.183Z,3.23
2018-04-28T15:19:03.898Z,2.70
2018-04-28T15:21:31.583Z,2.80
2018-04-28T15:23:59.362Z,2.53
2018-04-28T15:26:27.061Z,3.27
2018-04-28T15:28:55.506Z,2.23
2018-04-28T15:31:23.361Z,2.60
2018-04-28T15:33:51.124Z,2.97
2018-04-28T15:36:18.990Z,3.23
2018-04-28T15:38:46.856Z,2.43
2018-04-28T15:41:14.729Z,2.83
2018-04-28T15:43:42.589Z,2.93
2018-04-28T15:46:10.456Z,2.97
2018-04-28T15:48:38.318Z,2.57
2018-04-28T15:51:06.137Z,2.97
2018-04-28T15:53:34.766Z,2.93
2018-04-28T15:56:02.529Z,2.93
2018-04-28T15:58:30.205Z,3.30
2018-04-28T16:00:57.906Z,2.97
2018-04-28T16:03:25.581Z,2.57
2018-04-28T16:05:53.289Z,2.90
2018-04-28T16:08:20.991Z,3.03
2018-04-28T16:10:49.622Z,3.37
2018-04-28T16:13:17.394Z,4.40
2018-04-28T16:15:45.250Z,4.53
2018-04-28T16:18:13.025Z,4.00
2018-04-28T16:20:40.715Z,3.10
2018-04-28T16:23:09.317Z,2.73
2018-04-28T16:25:36.991Z,3.23
2018-04-28T16:28:04.676Z,2.23
2018-04-28T16:30:32.389Z,3.50
2018-04-28T16:33:00.825Z,2.50
2018-04-28T16:35:28.522Z,2.20
2018-04-28T16:37:56.997Z,3.30
2018-04-28T16:40:25.465Z,3.63
2018-04-28T16:42:53.145Z,2.97
2018-04-28T16:45:21.617Z,2.40
2018-04-28T16:47:49.312Z,2.83
2018-04-28T16:50:16.990Z,3.20
2018-04-28T16:52:44.709Z,2.90
2018-04-28T16:55:13.155Z,3.33
2018-04-28T16:57:40.856Z,3.53
2018-04-28T17:00:09.321Z,4.80
2018-04-28T17:02:37.155Z,4.83
2018-04-28T17:05:05.632Z,4.97
2018-04-28T17:07:33.499Z,4.33
2018-04-28T17:10:01.366Z,4.33
2018-04-28T17:12:29.129Z,4.40
2018-04-28T17:14:56.993Z,4.43
2018-04-28T17:17:36.273Z,4.47
2018-04-28T17:20:04.749Z,4.53
2018-04-28T17:22:33.185Z,3.97
2018-04-28T17:25:00.980Z,4.47
2018-04-28T17:27:28.651Z,4.60
2018-04-28T17:29:57.097Z,6.50
2018-04-28T17:32:24.793Z,5.73
2018-04-28T17:34:53.274Z,5.53
2018-04-28T17:37:21.753Z,5.63
2018-04-28T17:39:50.191Z,5.10
2018-04-28T17:42:17.957Z,4.97
2018-04-28T17:44:45.701Z,4.63
2018-04-28T17:47:13.381Z,5.07
2018-04-28T17:49:41.086Z,6.73
2018-04-28T17:52:09.530Z,6.63
2018-04-28T17:54:37.218Z,7.40
2018-04-28T17:57:05.725Z,6.80
2018-04-28T17:59:33.407Z,7.73
2018-04-28T18:02:01.097Z,7.33
2018-04-28T18:04:29.619Z,7.10
2018-04-28T18:07:02.207Z,6.80
2018-04-28T18:09:34.120Z,6.90
2018-04-28T18:12:04.700Z,7.27
2018-04-28T18:14:32.625Z,7.73
2018-04-28T18:17:01.132Z,7.70
2018-04-28T18:19:29.155Z,7.73
2018-04-28T18:21:57.014Z,8.70
2018-04-28T18:24:25.004Z,7.63
2018-04-28T18:26:52.847Z,7.40
2018-04-28T18:29:20.615Z,8.63
2018-04-28T18:31:48.476Z,8.17
2018-04-28T18:34:16.240Z,7.60
2018-04-28T18:36:43.917Z,9.33
2018-04-28T18:39:11.766Z,15.13
2018-04-28T18:41:39.442Z,9.97
2018-04-28T18:44:07.269Z,10.47
2018-04-28T18:46:35.162Z,11.37
2018-04-28T18:49:03.023Z,8.87
2018-04-28T18:51:30.889Z,9.20
2018-04-28T18:53:58.754Z,9.87
2018-04-28T18:56:26.620Z,9.43
2018-04-28T18:59:06.035Z,8.93
2018-04-28T19:01:41.656Z,9.27
2018-04-28T19:04:15.595Z,9.57
2018-04-28T19:06:52.349Z,8.97
2018-04-28T19:09:21.104Z,9.30
2018-04-28T19:11:48.936Z,9.83
2018-04-28T19:14:16.832Z,8.87
2018-04-28T19:16:44.807Z,9.13
2018-04-28T19:19:14.073Z,8.27
2018-04-28T19:21:41.942Z,9.03
2018-04-28T19:24:09.905Z,9.17
2018-04-28T19:26:37.773Z,9.53
2018-04-28T19:29:05.634Z,10.47
2018-04-28T19:31:33.499Z,9.97
2018-04-28T19:36:58.753Z,9.63
2018-04-28T19:39:27.406Z,9.53
2018-04-28T19:41:55.172Z,9.50
2018-04-28T19:44:22.909Z,10.10
2018-04-28T19:46:50.696Z,9.97
2018-04-28T19:49:18.411Z,9.53
2018-04-28T19:51:46.890Z,9.90
2018-04-28T19:54:15.363Z,10.10
2018-04-28T19:56:43.104Z,10.67
2018-04-28T19:59:10.812Z,10.43
2018-04-28T20:01:38.529Z,10.23
2018-04-28T20:04:06.206Z,9.40
2018-04-28T20:06:34.850Z,9.63
2018-04-28T20:09:02.557Z,10.37
2018-04-28T20:11:31.094Z,9.53
2018-04-28T20:13:58.958Z,10.70
2018-04-28T20:16:26.788Z,10.43
2018-04-28T20:18:55.304Z,10.60
2018-04-28T20:21:23.170Z,11.40
2018-04-28T20:24:02.913Z,11.87
2018-04-28T20:26:30.780Z,10.27
2018-04-28T20:28:59.338Z,11.40
2018-04-28T20:31:27.127Z,12.17
2018-04-28T20:33:54.994Z,9.83
2018-04-28T20:36:22.860Z,9.73
2018-04-28T20:38:50.625Z,10.63
2018-04-28T20:41:18.484Z,10.80
2018-04-28T20:43:46.350Z,11.00
2018-04-28T20:46:14.117Z,10.37
2018-04-28T20:48:41.874Z,12.00
2018-04-28T20:51:09.639Z,10.80
2018-04-28T20:53:37.403Z,10.50
2018-04-28T20:56:05.274Z,11.13
2018-04-28T20:58:33.033Z,10.50
2018-04-28T21:01:00.763Z,10.73
2018-04-28T21:03:28.661Z,11.07
2018-04-28T21:05:56.425Z,10.57
2018-04-28T21:08:24.289Z,10.67
2018-04-28T21:10:52.160Z,11.57
2018-04-28T21:13:20.021Z,11.67
2018-04-28T21:15:47.784Z,11.40
2018-04-28T21:18:15.496Z,13.07
2018-04-28T21:20:44.130Z,11.53
2018-04-28T21:23:11.810Z,11.53
2018-04-28T21:25:39.657Z,11.87
2018-04-28T21:28:07.421Z,13.17
2018-04-28T21:30:35.287Z,11.60
2018-04-28T21:33:03.151Z,12.07
2018-04-28T21:35:30.913Z,11.80
2018-04-28T21:37:58.787Z,10.93
2018-04-28T21:40:26.552Z,11.30
2018-04-28T21:42:54.408Z,10.37
2018-04-28T21:45:22.113Z,11.40
2018-04-28T21:47:50.714Z,12.27
2018-04-28T21:50:18.516Z,11.70
2018-04-28T21:52:46.280Z,12.00
2018-04-28T21:55:13.997Z,12.53
2018-04-28T21:57:42.767Z,11.70
2018-04-28T22:00:11.206Z,11.73
2018-04-28T22:02:39.073Z,11.20
2018-04-28T22:05:06.745Z,11.37
2018-04-28T22:07:34.428Z,12.30
2018-04-28T22:10:03.080Z,12.97
2018-04-28T22:12:30.945Z,11.60
2018-04-28T22:14:58.816Z,11.83
2018-04-28T22:17:26.676Z,12.50
2018-04-28T22:19:54.439Z,12.40
2018-04-28T22:22:22.204Z,12.83
2018-04-28T22:24:50.072Z,12.03
2018-04-28T22:27:17.753Z,12.50
2018-04-28T22:29:45.453Z,12.33
2018-04-28T22:32:13.161Z,12.60
2018-04-28T22:34:40.916Z,12.77
2018-04-28T22:37:08.782Z,12.27
2018-04-28T22:39:36.501Z,13.20
2018-04-28T22:42:04.200Z,13.00
2018-04-28T22:44:32.074Z,12.80
2018-04-28T22:46:59.937Z,13.23
2018-04-28T22:49:27.803Z,13.30
2018-04-28T22:51:55.486Z,13.53
2018-04-28T22:54:23.197Z,13.30
2018-04-28T22:56:50.894Z,13.03
2018-04-28T22:59:18.575Z,12.43
2018-04-28T23:01:47.233Z,14.27
2018-04-28T23:04:14.998Z,13.40
2018-04-28T23:06:42.850Z,13.73
2018-04-28T23:09:11.446Z,13.37
2018-04-28T23:11:39.121Z,13.13
2018-04-28T23:14:06.817Z,13.70
2018-04-28T23:16:35.452Z,13.53
2018-04-28T23:19:03.173Z,13.93
2018-04-28T23:21:30.981Z,13.13
2018-04-28T23:23:58.852Z,13.87
2018-04-28T23:26:26.557Z,13.23
2018-04-28T23:28:54.373Z,14.53
2018-04-28T23:31:22.239Z,14.43
2018-04-28T23:33:50.105Z,14.17
2018-04-28T23:36:17.865Z,13.43
2018-04-28T23:38:45.731Z,14.30
2018-04-28T23:41:13.499Z,13.60
2018-04-28T23:43:41.256Z,14.43
2018-04-28T23:46:09.025Z,15.23
2018-04-28T23:48:36.720Z,15.60
2018-04-28T23:51:05.185Z,14.67
2018-04-28T23:53:32.889Z,14.93
2018-04-28T23:56:00.593Z,13.97
2018-04-28T23:58:28.293Z,16.60
